Time;durP1;ratioP1;P1;durP2;ratioP2;P2;SDS_P1;SDS_P2;PMS_P1;PMS_P2;Temp;Humidity;BMP_temperature;BMP_pressure;BME280_temperature;BME280_humidity;BME280_pressure;Samples;Min_cycle;Max_cycle;Signal;HPM_P1;HPM_P2
2022/01/12 00:00:28;;;;;;;78.97;35.17;;;;;;;;;;5029156;28;20495;-69
2022/01/12 00:02:55;;;;;;;86.30;36.40;;;;;;;;;;5026984;28;20233;-68
2022/01/12 00:05:21;;;;;;;85.73;36.50;;;;;;;;;;5027397;28;21321;-69
2022/01/12 00:07:50;;;;;;;69.33;32.43;;;;;;;;;;5027193;28;20219;-68
2022/01/12 00:10:17;;;;;;;87.07;36.53;;;;;;;;;;5029118;28;20718;-68
2022/01/12 00:12:44;;;;;;;76.23;34.67;;;;;;;;;;5028394;28;20241;-68
2022/01/12 00:15:11;;;;;;;77.93;35.63;;;;;;;;;;5027938;28;20281;-68
2022/01/12 00:17:37;;;;;;;100.17;38.87;;;;;;;;;;5027618;28;20763;-68
2022/01/12 00:20:05;;;;;;;87.17;35.60;;;;;;;;;;5028962;28;20867;-69
2022/01/12 00:22:32;;;;;;;100.53;40.37;;;;;;;;;;5027505;28;20589;-69
2022/01/12 00:25:22;;;;;;;99.43;39.20;;;;;;;;;;5027500;28;20811;-68
2022/01/12 00:33:17;;;;;;;95.07;35.93;;;;;;;;;;5027725;28;20285;-69
2022/01/12 00:35:45;;;;;;;77.77;32.13;;;;;;;;;;5029515;28;20226;-69
2022/01/12 00:38:12;;;;;;;91.33;34.83;;;;;;;;;;5026895;28;20636;-69
2022/01/12 00:40:42;;;;;;;93.27;35.37;;;;;;;;;;5027588;28;20210;-68
2022/01/12 00:43:09;;;;;;;95.53;35.27;;;;;;;;;;5028309;28;20619;-68
2022/01/12 00:45:37;;;;;;;99.47;36.53;;;;;;;;;;5027836;28;20279;-68
2022/01/12 00:48:04;;;;;;;85.47;35.50;;;;;;;;;;5027716;28;20223;-68
2022/01/12 00:50:31;;;;;;;84.23;32.83;;;;;;;;;;5030368;28;20233;-68
2022/01/12 00:52:57;;;;;;;92.47;34.20;;;;;;;;;;5030224;28;20666;-68
2022/01/12 00:55:23;;;;;;;81.83;33.70;;;;;;;;;;5031693;28;20251;-69
2022/01/12 00:57:52;;;;;;;102.67;39.17;;;;;;;;;;5031244;28;20211;-68
2022/01/12 01:00:21;;;;;;;105.10;37.60;;;;;;;;;;5030650;28;20862;-68
2022/01/12 01:02:48;;;;;;;107.03;37.43;;;;;;;;;;5030266;28;20281;-68
2022/01/12 01:05:19;;;;;;;80.07;32.33;;;;;;;;;;5032524;28;20749;-68
2022/01/12 01:07:45;;;;;;;110.17;37.93;;;;;;;;;;5030343;28;20219;-69
2022/01/12 01:10:16;;;;;;;126.87;40.17;;;;;;;;;;5030501;28;20249;-69
2022/01/12 01:12:45;;;;;;;112.67;38.87;;;;;;;;;;5029865;28;20235;-69
2022/01/12 01:15:17;;;;;;;104.73;37.53;;;;;;;;;;5030073;28;20236;-69
2022/01/12 01:25:56;;;;;;;126.10;39.57;;;;;;;;;;5030716;28;20692;-69
2022/01/12 01:28:23;;;;;;;144.90;42.90;;;;;;;;;;5029718;28;20227;-69
2022/01/12 01:30:51;;;;;;;117.17;37.83;;;;;;;;;;5030180;28;20698;-69
2022/01/12 01:33:19;;;;;;;139.93;41.80;;;;;;;;;;5028913;28;20650;-68
2022/01/12 01:35:54;;;;;;;119.40;38.57;;;;;;;;;;5030926;28;20576;-69
2022/01/12 01:38:21;;;;;;;123.27;37.77;;;;;;;;;;5029708;28;20226;-68
2022/01/12 01:40:47;;;;;;;132.43;40.83;;;;;;;;;;5031944;28;20585;-68
2022/01/12 01:43:22;;;;;;;158.93;43.83;;;;;;;;;;5029110;28;20225;-69
2022/01/12 01:54:03;;;;;;;211.03;52.13;;;;;;;;;;5030152;28;20590;-68
2022/01/12 01:56:30;;;;;;;245.23;59.60;;;;;;;;;;5030116;28;20667;-68
2022/01/12 01:58:57;;;;;;;168.20;44.60;;;;;;;;;;5028744;28;20265;-68
2022/01/12 02:01:25;;;;;;;211.87;51.13;;;;;;;;;;5030601;28;20284;-69
2022/01/12 02:03:54;;;;;;;282.27;58.83;;;;;;;;;;5030038;28;20258;-69
2022/01/12 02:06:20;;;;;;;290.97;62.27;;;;;;;;;;5030334;28;20227;-69
2022/01/12 02:08:47;;;;;;;293.63;61.53;;;;;;;;;;5029585;28;20210;-68
2022/01/12 02:11:13;;;;;;;312.53;67.00;;;;;;;;;;5029483;28;20238;-69
2022/01/12 02:13:40;;;;;;;314.57;65.67;;;;;;;;;;5029633;28;20311;-68
2022/01/12 02:16:06;;;;;;;303.73;61.87;;;;;;;;;;5030329;28;20223;-68
2022/01/12 02:18:51;;;;;;;329.40;66.47;;;;;;;;;;5029480;28;20278;-68
2022/01/12 02:35:19;;;;;;;391.67;71.20;;;;;;;;;;5029292;28;20280;-68
2022/01/12 02:40:37;;;;;;;320.83;63.20;;;;;;;;;;5030709;28;20219;-68
2022/01/12 02:43:11;;;;;;;314.60;56.90;;;;;;;;;;5028871;28;20524;-69
2022/01/12 02:51:14;;;;;;;193.47;48.00;;;;;;;;;;5028836;28;20301;-68
2022/01/12 02:53:43;;;;;;;322.70;63.07;;;;;;;;;;5028672;28;20223;-69
2022/01/12 02:56:11;;;;;;;268.27;55.07;;;;;;;;;;5029892;28;20211;-68
2022/01/12 02:58:39;;;;;;;319.07;62.10;;;;;;;;;;5028854;28;20615;-68
2022/01/12 03:01:30;;;;;;;339.80;62.03;;;;;;;;;;5028270;28;20212;-68
2022/01/12 03:03:59;;;;;;;250.93;50.13;;;;;;;;;;5029301;28;20212;-68
2022/01/12 03:06:30;;;;;;;219.60;52.07;;;;;;;;;;5029996;28;20230;-68
2022/01/12 03:08:58;;;;;;;355.50;61.17;;;;;;;;;;5029834;28;20211;-68
2022/01/12 03:11:26;;;;;;;232.97;50.53;;;;;;;;;;5029590;28;20486;-68
2022/01/12 03:13:53;;;;;;;234.10;51.43;;;;;;;;;;5030001;28;20285;-68
2022/01/12 03:16:23;;;;;;;352.83;61.53;;;;;;;;;;5028691;28;20289;-68
2022/01/12 03:18:52;;;;;;;412.30;68.97;;;;;;;;;;5029356;28;21070;-68
2022/01/12 03:21:21;;;;;;;347.03;60.70;;;;;;;;;;5028156;28;20711;-68
2022/01/12 03:23:48;;;;;;;494.73;78.47;;;;;;;;;;5028513;28;20218;-68
2022/01/12 03:26:15;;;;;;;304.50;58.00;;;;;;;;;;5027550;28;20211;-68
2022/01/12 03:28:43;;;;;;;285.83;52.20;;;;;;;;;;5029183;28;20210;-68
2022/01/12 03:31:17;;;;;;;383.73;62.33;;;;;;;;;;5029171;28;20211;-68
2022/01/12 03:33:57;;;;;;;369.87;62.23;;;;;;;;;;5028391;28;20712;-68
2022/01/12 03:36:27;;;;;;;482.97;75.40;;;;;;;;;;5029185;28;20864;-68
2022/01/12 03:38:57;;;;;;;357.13;66.47;;;;;;;;;;5027412;28;20229;-68
2022/01/12 03:41:26;;;;;;;271.07;55.13;;;;;;;;;;5026403;28;20214;-68
2022/01/12 03:43:53;;;;;;;269.17;55.10;;;;;;;;;;5029465;28;20587;-68
2022/01/12 03:46:23;;;;;;;268.83;53.17;;;;;;;;;;5029226;28;20207;-69
2022/01/12 03:48:50;;;;;;;234.70;52.50;;;;;;;;;;5026676;28;20700;-69
2022/01/12 03:51:16;;;;;;;242.40;53.93;;;;;;;;;;5027626;28;20605;-68
2022/01/12 03:53:43;;;;;;;210.60;48.47;;;;;;;;;;5028156;28;20216;-68
2022/01/12 03:56:09;;;;;;;275.60;55.17;;;;;;;;;;5027510;28;20261;-68
2022/01/12 03:58:37;;;;;;;253.67;49.63;;;;;;;;;;5028787;28;20215;-69
2022/01/12 04:01:04;;;;;;;261.87;54.27;;;;;;;;;;5029301;28;20899;-68
2022/01/12 04:03:36;;;;;;;176.33;44.97;;;;;;;;;;5027854;28;20737;-68
2022/01/12 04:08:47;;;;;;;180.83;43.43;;;;;;;;;;5028250;28;20214;-68
2022/01/12 04:11:13;;;;;;;135.73;40.10;;;;;;;;;;5027561;28;20246;-68
2022/01/12 04:13:42;;;;;;;137.87;40.87;;;;;;;;;;5027797;28;20231;-68
2022/01/12 04:16:09;;;;;;;140.07;39.00;;;;;;;;;;5027890;28;20237;-69
2022/01/12 04:18:36;;;;;;;111.20;37.67;;;;;;;;;;5029135;28;20220;-69
2022/01/12 04:21:06;;;;;;;117.10;37.20;;;;;;;;;;5028861;28;20236;-69
2022/01/12 04:23:32;;;;;;;138.80;39.93;;;;;;;;;;5031604;28;20226;-68
2022/01/12 04:26:01;;;;;;;165.00;43.13;;;;;;;;;;5032652;28;20204;-68
2022/01/12 04:28:30;;;;;;;133.10;39.57;;;;;;;;;;5032263;28;20211;-68
2022/01/12 04:30:58;;;;;;;125.23;38.23;;;;;;;;;;5032701;28;20569;-68
2022/01/12 04:33:24;;;;;;;129.33;38.33;;;;;;;;;;5031831;28;20971;-68
2022/01/12 04:35:54;;;;;;;101.00;33.70;;;;;;;;;;5030553;28;20243;-68
2022/01/12 04:38:22;;;;;;;93.60;33.53;;;;;;;;;;5031309;28;20213;-69
2022/01/12 04:40:49;;;;;;;119.17;37.13;;;;;;;;;;5030650;28;20719;-68
2022/01/12 04:43:17;;;;;;;88.10;32.47;;;;;;;;;;5031420;28;20212;-68
2022/01/12 04:45:58;;;;;;;106.97;35.90;;;;;;;;;;5032080;28;20781;-68
2022/01/12 04:48:35;;;;;;;93.33;33.43;;;;;;;;;;5031787;28;20242;-69
2022/01/12 04:51:02;;;;;;;117.47;35.97;;;;;;;;;;5031691;28;20239;-69
2022/01/12 04:53:30;;;;;;;84.60;32.17;;;;;;;;;;5030165;28;20212;-68
2022/01/12 04:55:58;;;;;;;136.10;38.87;;;;;;;;;;5032056;28;20288;-68
2022/01/12 04:58:24;;;;;;;138.63;39.83;;;;;;;;;;5030569;28;20334;-68
2022/01/12 05:00:53;;;;;;;103.87;35.43;;;;;;;;;;5030029;28;20270;-68
2022/01/12 05:09:11;;;;;;;99.17;32.57;;;;;;;;;;4950287;28;20708;-69
2022/01/12 05:14:19;;;;;;;115.80;35.60;;;;;;;;;;4997988;28;20230;-68
2022/01/12 05:16:46;;;;;;;66.83;28.47;;;;;;;;;;5031024;28;20250;-68
2022/01/12 05:19:12;;;;;;;88.80;33.23;;;;;;;;;;5028878;28;20261;-68
2022/01/12 05:21:40;;;;;;;110.30;33.20;;;;;;;;;;5030051;28;20301;-69
2022/01/12 05:24:07;;;;;;;102.23;34.10;;;;;;;;;;5030848;28;20987;-68
2022/01/12 05:26:34;;;;;;;116.23;35.37;;;;;;;;;;5031126;28;20700;-68
2022/01/12 05:29:01;;;;;;;112.87;35.00;;;;;;;;;;5032351;28;21067;-69
2022/01/12 05:31:28;;;;;;;115.40;42.63;;;;;;;;;;5031310;28;20445;-74
2022/01/12 05:33:58;;;;;;;147.00;43.23;;;;;;;;;;5027659;28;20798;-74
2022/01/12 05:36:25;;;;;;;87.43;31.67;;;;;;;;;;5030760;28;20226;-74
2022/01/12 05:38:52;;;;;;;73.53;28.33;;;;;;;;;;5029752;28;20319;-74
2022/01/12 05:41:19;;;;;;;84.17;30.43;;;;;;;;;;5029031;28;20215;-74
2022/01/12 05:43:46;;;;;;;81.70;29.70;;;;;;;;;;5031341;28;20492;-74
2022/01/12 05:46:14;;;;;;;88.03;30.60;;;;;;;;;;5030830;28;20280;-74
2022/01/12 05:51:27;;;;;;;88.13;31.93;;;;;;;;;;5030724;28;20268;-74
2022/01/12 05:53:55;;;;;;;101.03;32.87;;;;;;;;;;5030938;28;20728;-74
2022/01/12 05:56:22;;;;;;;94.93;31.77;;;;;;;;;;5029758;28;20231;-74
2022/01/12 05:58:49;;;;;;;161.97;40.07;;;;;;;;;;5030248;28;20215;-74
2022/01/12 06:01:16;;;;;;;81.53;29.13;;;;;;;;;;5030098;28;20261;-74
2022/01/12 06:03:42;;;;;;;78.47;29.53;;;;;;;;;;5032067;28;20261;-74
2022/01/12 06:06:09;;;;;;;90.90;29.30;;;;;;;;;;5028674;28;20242;-74
2022/01/12 06:08:35;;;;;;;78.70;29.83;;;;;;;;;;5030399;28;20773;-74
2022/01/12 06:11:04;;;;;;;99.90;32.33;;;;;;;;;;5031086;28;20235;-74
2022/01/12 06:13:30;;;;;;;95.97;30.80;;;;;;;;;;5030990;28;20235;-74
2022/01/12 06:15:57;;;;;;;84.10;28.80;;;;;;;;;;5028585;28;20235;-74
2022/01/12 06:18:23;;;;;;;104.50;30.97;;;;;;;;;;5029971;28;20637;-75
2022/01/12 06:20:50;;;;;;;61.97;25.20;;;;;;;;;;5030013;28;20285;-74
2022/01/12 06:23:17;;;;;;;73.33;27.93;;;;;;;;;;5031325;28;20666;-75
2022/01/12 06:25:44;;;;;;;77.60;28.70;;;;;;;;;;5032076;28;20219;-74
2022/01/12 06:28:24;;;;;;;84.57;29.13;;;;;;;;;;5029483;28;21130;-74
2022/01/12 06:33:36;;;;;;;87.73;29.67;;;;;;;;;;5030651;28;20209;-74
2022/01/12 06:36:03;;;;;;;77.50;27.73;;;;;;;;;;5030392;28;20647;-74
2022/01/12 06:38:29;;;;;;;70.80;27.37;;;;;;;;;;5029716;28;20288;-74
2022/01/12 06:40:56;;;;;;;64.17;26.90;;;;;;;;;;5030791;28;20302;-74
2022/01/12 06:43:24;;;;;;;86.07;29.40;;;;;;;;;;5031254;28;20211;-74
2022/01/12 06:45:50;;;;;;;71.00;24.37;;;;;;;;;;5028902;28;20257;-74
2022/01/12 06:48:16;;;;;;;115.70;31.10;;;;;;;;;;5028641;28;20294;-74
2022/01/12 06:50:43;;;;;;;80.60;27.87;;;;;;;;;;5029702;28;20252;-74
2022/01/12 06:53:10;;;;;;;88.87;28.07;;;;;;;;;;5029339;28;20207;-74
2022/01/12 06:55:36;;;;;;;69.70;25.67;;;;;;;;;;5029953;28;20300;-74
2022/01/12 06:58:03;;;;;;;115.27;31.77;;;;;;;;;;5029908;28;20278;-74
2022/01/12 07:00:31;;;;;;;99.17;32.20;;;;;;;;;;5028807;28;20270;-74
2022/01/12 07:02:57;;;;;;;77.67;28.57;;;;;;;;;;5029325;28;20230;-74
2022/01/12 07:05:23;;;;;;;78.67;28.37;;;;;;;;;;5030191;28;20219;-74
2022/01/12 07:07:50;;;;;;;73.30;26.43;;;;;;;;;;5028767;28;20258;-74
2022/01/12 07:10:16;;;;;;;87.47;30.40;;;;;;;;;;5025739;28;20238;-74
2022/01/12 07:12:43;;;;;;;81.97;30.23;;;;;;;;;;5029215;28;20289;-74
2022/01/12 07:15:10;;;;;;;96.27;32.27;;;;;;;;;;5026771;28;20554;-74
2022/01/12 07:17:37;;;;;;;88.50;30.47;;;;;;;;;;5026202;28;20231;-74
2022/01/12 07:20:05;;;;;;;90.27;30.90;;;;;;;;;;5027715;28;20890;-74
2022/01/12 07:22:32;;;;;;;86.37;30.10;;;;;;;;;;5027213;28;20210;-74
2022/01/12 07:24:58;;;;;;;77.77;28.47;;;;;;;;;;5026673;28;20207;-74
2022/01/12 07:27:25;;;;;;;85.37;28.00;;;;;;;;;;5027212;28;20284;-74
2022/01/12 07:29:51;;;;;;;96.80;31.03;;;;;;;;;;5028405;28;20214;-74
2022/01/12 07:32:17;;;;;;;100.57;31.93;;;;;;;;;;5027115;28;20285;-74
2022/01/12 07:34:47;;;;;;;143.00;36.97;;;;;;;;;;5027495;28;20238;-74
2022/01/12 07:37:13;;;;;;;130.33;33.00;;;;;;;;;;5025242;28;20330;-74
2022/01/12 07:39:40;;;;;;;130.10;34.50;;;;;;;;;;5025244;28;20210;-74
2022/01/12 07:42:07;;;;;;;142.77;36.67;;;;;;;;;;5024249;28;20256;-73
2022/01/12 07:44:33;;;;;;;141.50;36.83;;;;;;;;;;5026403;28;20208;-74
2022/01/12 07:47:00;;;;;;;193.00;42.50;;;;;;;;;;5027564;28;20218;-74
2022/01/12 07:49:26;;;;;;;192.27;40.53;;;;;;;;;;5027800;28;20211;-74
2022/01/12 07:51:54;;;;;;;147.90;35.47;;;;;;;;;;5027513;28;20237;-74
2022/01/12 07:54:20;;;;;;;179.07;39.17;;;;;;;;;;5024827;28;20245;-74
2022/01/12 07:56:47;;;;;;;155.27;35.47;;;;;;;;;;5027704;28;20649;-74
2022/01/12 07:59:14;;;;;;;122.00;31.07;;;;;;;;;;5029811;28;20292;-74
2022/01/12 08:01:40;;;;;;;160.77;36.80;;;;;;;;;;5029902;28;20574;-74
2022/01/12 08:04:06;;;;;;;180.87;37.70;;;;;;;;;;5030758;28;20222;-74
2022/01/12 08:06:33;;;;;;;135.53;33.13;;;;;;;;;;5030570;28;20227;-74
2022/01/12 08:09:01;;;;;;;196.20;39.53;;;;;;;;;;5029110;28;20238;-74
2022/01/12 08:11:28;;;;;;;186.67;38.43;;;;;;;;;;5028351;28;20672;-74
2022/01/12 08:13:55;;;;;;;172.33;39.97;;;;;;;;;;5028112;28;20330;-74
2022/01/12 08:16:21;;;;;;;232.67;42.70;;;;;;;;;;5030081;28;21496;-74
2022/01/12 08:18:47;;;;;;;356.20;50.80;;;;;;;;;;5028909;28;20226;-74
2022/01/12 08:21:14;;;;;;;424.70;54.73;;;;;;;;;;5027922;28;20305;-74
2022/01/12 08:23:40;;;;;;;517.77;61.37;;;;;;;;;;5025911;28;20669;-74
2022/01/12 08:26:08;;;;;;;556.37;63.73;;;;;;;;;;5029881;28;20296;-74
2022/01/12 08:28:35;;;;;;;468.33;58.13;;;;;;;;;;5031558;28;22018;-74
2022/01/12 08:31:01;;;;;;;417.83;58.67;;;;;;;;;;5030932;28;20214;-74
2022/01/12 08:33:29;;;;;;;495.57;57.17;;;;;;;;;;5029634;28;20273;-74
2022/01/12 08:35:55;;;;;;;520.17;63.60;;;;;;;;;;5029236;28;20230;-74
2022/01/12 08:38:22;;;;;;;545.70;58.13;;;;;;;;;;5028460;28;20280;-74
2022/01/12 08:40:48;;;;;;;532.43;54.73;;;;;;;;;;5029264;28;20264;-75
2022/01/12 08:43:16;;;;;;;411.73;43.67;;;;;;;;;;5027574;28;20226;-74
2022/01/12 08:45:42;;;;;;;469.30;43.27;;;;;;;;;;5028721;28;20253;-74
2022/01/12 08:48:09;;;;;;;377.70;40.40;;;;;;;;;;5025133;28;20227;-74
2022/01/12 08:50:35;;;;;;;454.20;40.77;;;;;;;;;;5028790;28;20264;-78
2022/01/12 08:53:02;;;;;;;389.13;37.83;;;;;;;;;;5028321;28;20207;-74
2022/01/12 08:55:29;;;;;;;364.37;32.33;;;;;;;;;;5029158;28;20914;-74
2022/01/12 08:57:58;;;;;;;433.97;37.13;;;;;;;;;;5030116;28;20215;-74
2022/01/12 09:00:29;;;;;;;360.37;28.37;;;;;;;;;;5031045;28;20206;-75
2022/01/12 09:02:55;;;;;;;415.53;31.70;;;;;;;;;;5029690;28;20235;-74
2022/01/12 09:05:22;;;;;;;325.77;27.67;;;;;;;;;;5030856;28;20280;-74
2022/01/12 09:07:48;;;;;;;315.53;30.20;;;;;;;;;;5031906;28;20252;-75
2022/01/12 09:10:15;;;;;;;295.87;23.47;;;;;;;;;;5028436;28;20242;-74
2022/01/12 09:12:41;;;;;;;294.67;26.10;;;;;;;;;;5032317;28;20242;-74
2022/01/12 09:15:11;;;;;;;320.33;25.60;;;;;;;;;;5030214;28;20370;-74
2022/01/12 09:17:39;;;;;;;239.20;22.43;;;;;;;;;;5030408;28;20326;-74
2022/01/12 09:20:08;;;;;;;245.37;22.90;;;;;;;;;;5030206;28;20372;-74
2022/01/12 09:22:34;;;;;;;348.80;30.23;;;;;;;;;;5031234;28;20269;-74
2022/01/12 09:25:02;;;;;;;219.70;23.33;;;;;;;;;;5029562;28;20207;-74
2022/01/12 09:27:28;;;;;;;182.73;19.87;;;;;;;;;;5029904;28;20208;-74
2022/01/12 09:29:54;;;;;;;270.67;25.37;;;;;;;;;;5028252;28;20630;-74
2022/01/12 09:32:21;;;;;;;241.60;25.70;;;;;;;;;;5028901;28;20223;-74
2022/01/12 09:34:49;;;;;;;368.67;29.63;;;;;;;;;;5029537;28;20238;-74
2022/01/12 09:37:15;;;;;;;351.57;28.63;;;;;;;;;;5030920;28;20226;-74
2022/01/12 09:39:42;;;;;;;292.23;20.10;;;;;;;;;;5028416;28;20222;-74
2022/01/12 09:42:09;;;;;;;189.67;20.43;;;;;;;;;;5030075;28;20263;-74
2022/01/12 09:44:43;;;;;;;223.10;20.23;;;;;;;;;;5029354;28;20265;-74
2022/01/12 09:47:09;;;;;;;178.97;17.63;;;;;;;;;;5027525;28;20258;-74
2022/01/12 09:49:36;;;;;;;130.13;15.20;;;;;;;;;;5029327;28;20261;-74
2022/01/12 09:52:05;;;;;;;170.10;12.17;;;;;;;;;;5029340;28;20213;-74
2022/01/12 09:54:31;;;;;;;97.80;12.27;;;;;;;;;;5030319;28;20218;-75
2022/01/12 09:56:58;;;;;;;115.13;13.77;;;;;;;;;;5029673;28;20296;-74
2022/01/12 09:59:25;;;;;;;123.60;12.40;;;;;;;;;;5029260;28;20214;-74
2022/01/12 10:01:54;;;;;;;110.33;11.30;;;;;;;;;;5028431;28;20297;-74
2022/01/12 10:04:22;;;;;;;149.43;16.23;;;;;;;;;;5029213;28;20219;-74
2022/01/12 10:06:52;;;;;;;117.40;11.53;;;;;;;;;;5028418;28;20223;-74
2022/01/12 10:09:24;;;;;;;64.17;8.77;;;;;;;;;;5027026;28;20317;-75
2022/01/12 10:11:52;;;;;;;68.00;9.60;;;;;;;;;;5029390;28;20218;-75
2022/01/12 10:14:19;;;;;;;81.97;8.83;;;;;;;;;;5028117;28;20206;-75
2022/01/12 10:16:53;;;;;;;123.70;11.13;;;;;;;;;;5028941;28;20234;-74
2022/01/12 10:19:27;;;;;;;102.13;12.67;;;;;;;;;;5028231;28;20210;-74
2022/01/12 10:21:54;;;;;;;72.77;9.87;;;;;;;;;;5031893;28;20222;-74
2022/01/12 10:24:22;;;;;;;72.97;9.43;;;;;;;;;;5029613;28;20256;-74
2022/01/12 10:26:49;;;;;;;76.70;8.37;;;;;;;;;;5027160;28;20211;-74
2022/01/12 10:29:18;;;;;;;94.30;12.23;;;;;;;;;;5029511;28;20218;-74
2022/01/12 10:31:51;;;;;;;107.20;14.63;;;;;;;;;;5027807;28;20649;-74
2022/01/12 10:34:20;;;;;;;104.33;13.23;;;;;;;;;;5027195;28;20211;-74
2022/01/12 10:36:48;;;;;;;160.90;17.53;;;;;;;;;;5028675;28;20231;-75
2022/01/12 10:39:17;;;;;;;93.50;14.20;;;;;;;;;;5028503;28;20219;-75
2022/01/12 10:41:54;;;;;;;130.77;15.37;;;;;;;;;;5028006;28;20214;-74
2022/01/12 10:44:22;;;;;;;123.37;17.03;;;;;;;;;;5029307;28;20233;-74
2022/01/12 10:46:49;;;;;;;116.30;12.97;;;;;;;;;;5027809;28;20243;-74
2022/01/12 10:49:20;;;;;;;96.43;10.80;;;;;;;;;;5026699;28;20265;-74
2022/01/12 10:51:55;;;;;;;110.83;12.37;;;;;;;;;;5029421;28;20669;-74
2022/01/12 10:54:21;;;;;;;78.90;11.30;;;;;;;;;;5026986;28;20215;-74
2022/01/12 10:56:48;;;;;;;114.27;14.00;;;;;;;;;;5028445;28;20317;-74
2022/01/12 10:59:18;;;;;;;121.20;13.93;;;;;;;;;;5028070;28;20217;-74
2022/01/12 11:01:44;;;;;;;171.10;16.07;;;;;;;;;;5027177;28;20686;-74
2022/01/12 11:04:11;;;;;;;161.27;16.07;;;;;;;;;;5029964;28;20288;-74
2022/01/12 11:06:38;;;;;;;141.07;13.57;;;;;;;;;;5027921;28;20222;-75
2022/01/12 11:09:06;;;;;;;113.77;13.00;;;;;;;;;;5026872;28;20207;-74
2022/01/12 11:11:34;;;;;;;192.00;14.90;;;;;;;;;;5028848;28;20245;-75
2022/01/12 11:14:01;;;;;;;82.80;11.87;;;;;;;;;;5028318;28;20340;-74
2022/01/12 11:16:29;;;;;;;131.80;14.30;;;;;;;;;;5027937;28;20253;-74
2022/01/12 11:18:58;;;;;;;118.30;14.23;;;;;;;;;;5028260;28;20295;-74
2022/01/12 11:21:33;;;;;;;107.37;14.17;;;;;;;;;;5029085;28;20231;-74
2022/01/12 11:24:00;;;;;;;89.93;11.07;;;;;;;;;;5027362;28;20283;-74
2022/01/12 11:26:28;;;;;;;129.07;15.03;;;;;;;;;;5026408;28;20266;-74
2022/01/12 11:28:56;;;;;;;104.23;11.60;;;;;;;;;;5027601;28;20265;-74
2022/01/12 11:31:24;;;;;;;97.53;10.17;;;;;;;;;;5025878;28;20270;-74
2022/01/12 11:33:53;;;;;;;92.40;12.10;;;;;;;;;;5028674;28;20211;-75
2022/01/12 11:36:22;;;;;;;133.00;12.13;;;;;;;;;;5026367;28;20234;-74
2022/01/12 11:38:52;;;;;;;95.13;10.53;;;;;;;;;;5027663;28;20222;-74
2022/01/12 11:41:23;;;;;;;97.17;10.70;;;;;;;;;;5025704;28;20261;-74
2022/01/12 11:43:51;;;;;;;86.70;10.57;;;;;;;;;;5027794;28;20206;-74
2022/01/12 11:46:20;;;;;;;126.03;13.23;;;;;;;;;;5027953;28;20215;-74
2022/01/12 11:48:48;;;;;;;129.80;15.57;;;;;;;;;;5027994;28;20219;-74
2022/01/12 11:51:19;;;;;;;83.97;11.67;;;;;;;;;;5027014;28;20227;-74
2022/01/12 11:53:48;;;;;;;123.33;14.30;;;;;;;;;;5027062;28;20214;-74
2022/01/12 11:56:17;;;;;;;84.20;12.17;;;;;;;;;;5026199;28;20315;-74
2022/01/12 11:58:56;;;;;;;140.37;14.87;;;;;;;;;;5028748;28;20427;-74
2022/01/12 12:01:24;;;;;;;105.87;13.63;;;;;;;;;;5027676;28;20233;-73
2022/01/12 12:03:59;;;;;;;101.63;12.83;;;;;;;;;;5028615;28;20214;-74
2022/01/12 12:06:27;;;;;;;99.60;16.67;;;;;;;;;;5027180;28;20237;-74
2022/01/12 12:08:59;;;;;;;73.77;12.13;;;;;;;;;;5025266;28;20631;-74
2022/01/12 12:11:28;;;;;;;98.70;13.87;;;;;;;;;;5027364;28;20728;-74
2022/01/12 12:13:59;;;;;;;117.77;16.13;;;;;;;;;;5025561;28;20242;-73
2022/01/12 12:16:26;;;;;;;105.97;14.30;;;;;;;;;;5027011;28;20258;-74
2022/01/12 12:18:53;;;;;;;62.50;12.23;;;;;;;;;;5027875;28;20227;-74
2022/01/12 12:21:20;;;;;;;141.83;17.57;;;;;;;;;;5025422;28;20309;-74
2022/01/12 12:23:47;;;;;;;114.23;16.27;;;;;;;;;;5028443;28;20281;-74
2022/01/12 12:26:16;;;;;;;70.03;14.40;;;;;;;;;;5025926;28;20742;-74
2022/01/12 12:28:47;;;;;;;86.67;16.33;;;;;;;;;;5025910;28;20267;-74
2022/01/12 12:31:21;;;;;;;96.87;18.97;;;;;;;;;;5026760;28;20210;-74
2022/01/12 12:33:58;;;;;;;73.53;17.20;;;;;;;;;;5027263;28;20218;-74
2022/01/12 12:36:25;;;;;;;49.67;14.23;;;;;;;;;;5026891;28;20223;-74
2022/01/12 12:38:53;;;;;;;54.53;15.93;;;;;;;;;;5026184;28;20231;-74
2022/01/12 12:41:19;;;;;;;51.83;17.33;;;;;;;;;;5024681;28;20681;-74
2022/01/12 12:43:46;;;;;;;48.47;16.47;;;;;;;;;;5028749;28;20210;-74
2022/01/12 12:46:14;;;;;;;42.10;15.50;;;;;;;;;;5030002;28;20228;-74
2022/01/12 12:48:42;;;;;;;42.30;15.13;;;;;;;;;;5030887;28;20207;-74
2022/01/12 12:51:12;;;;;;;39.50;14.43;;;;;;;;;;5029800;28;20485;-75
2022/01/12 12:53:41;;;;;;;42.03;15.90;;;;;;;;;;5029651;28;20326;-74
2022/01/12 12:56:14;;;;;;;38.00;13.03;;;;;;;;;;5029784;28;20222;-74
2022/01/12 12:58:43;;;;;;;45.17;13.67;;;;;;;;;;5029327;28;20320;-74
2022/01/12 13:01:12;;;;;;;44.67;13.73;;;;;;;;;;5028418;28;20272;-74
2022/01/12 13:03:40;;;;;;;36.00;12.17;;;;;;;;;;5030810;28;20895;-74
2022/01/12 13:06:07;;;;;;;35.67;12.87;;;;;;;;;;5030399;28;20234;-74
2022/01/12 13:08:33;;;;;;;37.37;12.43;;;;;;;;;;5029437;28;20300;-75
2022/01/12 13:11:06;;;;;;;38.23;12.93;;;;;;;;;;5028943;28;21119;-75
2022/01/12 13:13:34;;;;;;;43.93;11.83;;;;;;;;;;5029972;28;20864;-74
2022/01/12 13:16:01;;;;;;;33.23;10.33;;;;;;;;;;5029594;28;20212;-74
2022/01/12 13:18:27;;;;;;;40.93;12.07;;;;;;;;;;5028541;28;20242;-75
2022/01/12 13:21:08;;;;;;;33.67;11.87;;;;;;;;;;5029410;28;20227;-75
2022/01/12 13:23:39;;;;;;;34.37;11.37;;;;;;;;;;5029309;28;20206;-75
2022/01/12 13:26:06;;;;;;;33.87;12.10;;;;;;;;;;5028418;28;20251;-75
2022/01/12 13:28:35;;;;;;;36.20;12.23;;;;;;;;;;5028945;28;20216;-75
2022/01/12 13:31:04;;;;;;;30.47;12.67;;;;;;;;;;5029500;28;20212;-75
2022/01/12 13:33:35;;;;;;;37.70;12.30;;;;;;;;;;5029995;28;20210;-75
2022/01/12 13:36:12;;;;;;;45.00;13.33;;;;;;;;;;5029656;28;20229;-75
2022/01/12 13:38:39;;;;;;;38.40;12.27;;;;;;;;;;5030921;28;20826;-75
2022/01/12 13:41:07;;;;;;;36.77;12.57;;;;;;;;;;5029823;28;20735;-76
2022/01/12 13:43:35;;;;;;;34.00;13.30;;;;;;;;;;5030282;28;20364;-76
2022/01/12 13:46:11;;;;;;;39.13;13.87;;;;;;;;;;5029988;28;20334;-75
2022/01/12 13:48:40;;;;;;;38.17;13.10;;;;;;;;;;5028649;28;20216;-75
2022/01/12 13:51:07;;;;;;;38.27;13.87;;;;;;;;;;5029039;28;20278;-75
2022/01/12 13:53:35;;;;;;;32.93;12.83;;;;;;;;;;5028254;28;20212;-75
2022/01/12 13:56:02;;;;;;;39.73;12.77;;;;;;;;;;5028287;28;20222;-75
2022/01/12 13:58:29;;;;;;;31.03;13.47;;;;;;;;;;5029818;28;20235;-75
2022/01/12 14:01:02;;;;;;;38.30;13.90;;;;;;;;;;5028614;28;20582;-75
2022/01/12 14:03:30;;;;;;;46.40;15.03;;;;;;;;;;5029178;28;20235;-76
2022/01/12 14:05:59;;;;;;;46.77;14.40;;;;;;;;;;5030244;28;20254;-76
2022/01/12 14:08:40;;;;;;;37.27;14.13;;;;;;;;;;5028719;28;20203;-75
2022/01/12 14:11:07;;;;;;;41.40;14.97;;;;;;;;;;5026864;28;20322;-76
2022/01/12 14:13:40;;;;;;;40.60;15.27;;;;;;;;;;5029979;28;20231;-75
2022/01/12 14:16:09;;;;;;;46.67;17.97;;;;;;;;;;5029172;28;20239;-76
2022/01/12 14:18:35;;;;;;;45.00;15.00;;;;;;;;;;5028280;28;20227;-76
2022/01/12 14:21:13;;;;;;;63.07;17.80;;;;;;;;;;5026722;28;20239;-76
2022/01/12 14:23:39;;;;;;;37.70;13.50;;;;;;;;;;5029815;28;20217;-76
2022/01/12 14:26:06;;;;;;;46.20;15.97;;;;;;;;;;5027218;28;20215;-76
2022/01/12 14:28:34;;;;;;;39.03;16.63;;;;;;;;;;5027672;28;20216;-75
2022/01/12 14:31:01;;;;;;;38.63;16.43;;;;;;;;;;5028617;28;20304;-77
2022/01/12 14:33:29;;;;;;;37.27;16.67;;;;;;;;;;5026701;28;20227;-76
2022/01/12 14:35:55;;;;;;;47.00;18.13;;;;;;;;;;5027357;28;20236;-76
2022/01/12 14:38:22;;;;;;;43.40;17.90;;;;;;;;;;5026455;28;20371;-75
2022/01/12 14:40:48;;;;;;;44.33;16.40;;;;;;;;;;5029526;28;20630;-75
2022/01/12 14:43:15;;;;;;;40.80;17.30;;;;;;;;;;5026619;28;20211;-76
2022/01/12 14:45:44;;;;;;;53.47;18.53;;;;;;;;;;5027600;28;20216;-76
2022/01/12 14:48:12;;;;;;;43.70;17.37;;;;;;;;;;5027672;28;20933;-76
2022/01/12 14:50:41;;;;;;;40.23;17.13;;;;;;;;;;5027688;28;20395;-76
2022/01/12 14:53:09;;;;;;;42.77;17.47;;;;;;;;;;5026629;28;20304;-76
2022/01/12 14:55:36;;;;;;;38.50;16.43;;;;;;;;;;5026104;28;20264;-76
2022/01/12 14:58:03;;;;;;;45.37;16.60;;;;;;;;;;5027343;28;20547;-76
2022/01/12 15:00:34;;;;;;;40.00;17.63;;;;;;;;;;5026554;28;20222;-76
2022/01/12 15:03:03;;;;;;;44.40;19.23;;;;;;;;;;5027287;28;20284;-76
2022/01/12 15:05:30;;;;;;;40.00;18.47;;;;;;;;;;5025478;28;20593;-76
2022/01/12 15:07:59;;;;;;;48.77;19.80;;;;;;;;;;5028119;28;20294;-76
2022/01/12 15:10:26;;;;;;;41.60;20.27;;;;;;;;;;5027647;28;20239;-75
2022/01/12 15:12:55;;;;;;;53.03;21.47;;;;;;;;;;5027766;28;20239;-76
2022/01/12 15:15:22;;;;;;;53.70;22.07;;;;;;;;;;5026826;28;20309;-76
2022/01/12 15:17:48;;;;;;;58.23;22.17;;;;;;;;;;5027135;28;20227;-76